Terminal Aerodrome Forecast
Issued by NWS

Home | Current Version | Previous Version | Text Only | Print | Product List | Glossary On
Versions: 1 2 3 4 5 6 7 8 9 10 11 12 13 14 15 16
000
FTUS43 KIND 222340
TAFHUF
TAF
KHUF 222340Z 2300/2324 VRB03KT P6SM VCTS SCT050CB BKN250
     FM230200 VRB03KT P6SM SCT250
      TEMPO 2309/2313 3SM BR
     FM231600 11005KT P6SM FEW040 SCT250=

USA.gov is the U.S. government's official web portal to all federal, state and local government web resources and services.